Kona International At Keahole, HI

12:01 PM HST on September 25, 2016 (GMT -1000)
Kona International At Keahole | | Change Station

Elev 43 ft 19.74 °N, 156.05 °W | Updated 8 minutes ago

Clear
Clear
87 °F
Feels Like 92 °F
N
16
Wind Variable Wind from WNW

Today
High -- | Low -- °F
--% Chance of Precip.
Yesterday
High -- | Low -- °F
Precip. -- in
Pressure 29.99 in
Visibility 10.0 miles
Clouds Clear
Heat Index 92 °F
Dew Point 70 °F
Humidity 57%
Rainfall 0.00 in
Snow Depth Not available.
6:13 AM 6:17 PM
Waning Crescent, 24% visible
METAR PHKO 252153Z 30014KT 10SM CLR 31/21 A2998 RMK AO2 SLP153 T03060211 $
Pressure 29.99 in
Visibility 10.0 miles
Clouds Clear
Heat Index 92 °F
Dew Point 70 °F
Humidity 57%
Rainfall 0.00 in
Snow Depth Not available.
6:13 AM 6:17 PM
Waning Crescent, 24% visible
METAR PHKO 252153Z 30014KT 10SM CLR 31/21 A2998 RMK AO2 SLP153 T03060211 $

10-Day Weather Forecast

Almanac

Astronomy

Sep. 25, 2016 Rise Set
Actual Time
Civil Twilight
Nautical Twilight
Astronomical Twilight
Moon
Length of Visible Light
Length of Day
Tomorrow will be .
, % of the Moon is Illuminated

Today's Extremes

State Highs State Lows

Community

WunderPhotos

Upload Photos

1,941,754 photos uploaded!

WunderBlog® & News

Nearby

Air Quality

  Air Quality AQ Index Pollutant
Not available.

Snow Depth

Station Depth Elevation

Earthquake Activity

City Distance Mag. Time & Date
Minimum magnitude displayed is 2.5.

Coastal Water Temperatures

Place Temperature

Stations

Nearby Weather Stations

Station Location Temp. Windchill Dew Point Humidity Wind Precip. Elev Updated Type
                   

Watches & Warnings

There are currently no watches in effect.